METAR Data
IDs: Format: Raw Decoded Include TAF

Data at: 0734 UTC 18 Sep 2021

PAED 180656Z 24005KT 10SM FEW040 BKN070 BKN100 12/05 A2941 RMK AO2A SLPNO WND DATA AND ALSTG/SLP ESTMD